McCook, NE (69001)

2:21 AM CDT on August 01, 2015 (GMT -0500)
KNEMCCOO2 | | Change Station
CLOSE
Current Station
Personal Weather Station
Location: McCook, NE
Elevation: 2609 ft
Nearby Weather Stations
Active Advisory: Flash Flood Warning

Elev 2609 ft 40.21 °N, 100.64 °W | Updated 32 seconds ago

Partly Cloudy
Partly Cloudy
75.4 °F
Feels Like 77 °F
N
0.0
Wind Variable Wind from East
Gusts 0.8 mph

Today
High -- | Low -- °F
--% Chance of Precip.
Yesterday
High -- | Low -- °F
Precip. -- in
6:40 AM 8:56 PM
Full, 99% visible
Pressure 30.04 in
Visibility 10.0 miles
Clouds Few 9000 ft
Heat Index 77 °F
Dew Point 64 °F
Humidity 67%
Rainfall 0.00 in
Snow Depth Not available.
UV 0 out of 12
Pollen 7.10 out of 12
Air Quality Not available.
Flu Activity Not available.
METAR KMCK 010653Z AUTO 08007KT 10SM FEW090 22/17 A3013 RMK AO2 LTG DSNT N-SE SLP173 T02220167

More Conditions Fewer Conditions

Pressure 30.04 in
Visibility 10.0 miles
Clouds Few 9000 ft
Heat Index 77 °F
Dew Point 64 °F
Humidity 67%
Rainfall 0.00 in
Snow Depth Not available.
UV 0 out of 12
Pollen 7.10 out of 12
Air Quality Not available.
Flu Activity Not available.
METAR KMCK 010653Z AUTO 08007KT 10SM FEW090 22/17 A3013 RMK AO2 LTG DSNT N-SE SLP173 T02220167

More Conditions Fewer Conditions

10-Day Weather Forecast

×

Almanac

Astronomy

Aug. 01, 2015 Rise Set
Actual Time
Civil Twilight
Nautical Twilight
Astronomical Twilight
Moon
Length of Visible Light
Length of Day
Tomorrow will be .
, % of the Moon is Illuminated

Today's Extremes

State Highs State Lows

Community

WunderPhotos

Upload Photos

1,842,899 photos uploaded!

WunderBlogs® & News

Nearby

Air Quality

  Air Quality AQ Index Pollutant
Not available.

Snow Depth

Station Depth Elevation

Earthquake Activity

City Distance Mag. Time & Date
Minimum magnitude displayed is 2.5.

Coastal Water Temperatures

Place Temperature

Stations

Nearby Weather Stations

Station Location Temp. Windchill Dew Point Humidity Wind Precip. Elev Updated Type
                   
Flash Flood Warning
Statement as of 2:08 AM CDT on August 01, 2015

The National Weather Service in Goodland has issued a

* Flash Flood Warning for...
northeastern Red Willow County in southwestern Nebraska...

* until 500 am CDT

* at 206 am CDT... Doppler radar indicated a thunderstorm producing
heavy rain across the warned area. Two to three inches of rain
have fallen. Flash flooding is expected to begin shortly.

* Some locations that will experience flooding include...
Bartley.

Additional rainfall amounts of one to three inches are possible in
the warned area.

Precautionary/preparedness actions...

Move to higher ground now. Act quickly to protect your life.

Be especially cautious at night when it is harder to recognize the
dangers of flooding.

Turn around... dont drown when encountering flooded roads. Most flood
deaths occur in vehicles.


Lat... Lon 4011 10020 4015 10033 4035 10041 4035 10020


Husted